Погода METAR - Абакан

Код аэропорта ICAO:
Кемерово, Абакан, Красноярск, Новосибирск
Код METAR: UNAA 251430Z 30002MPS CAVOK M03/M06 Q1026 R02/090065 NOSIG RMK QFE747
TAF UNAA 251358Z 2515/2615 31003G08MPS 9999 SCT015CB 
     TEMPO 2515/2518 4000 -SHSN 
     FM251800 34003MPS 3100 BR FU SCT012 
     FM260500 05003G10MPS 9999 SCT030
       

Погода - Сейчас

Время: 2019-03-25 21:30, местное
Направление ветра: Северо-запад (300°)
Скорость ветра: 2 м/с
Видимость: более 10км, отсутствие осадков и облаков
Температура: -3°C
Точка росы: -6°C
Атмосферное давление: 1026 гПа

Архив погоды

Время, местное Направление Скорость, м/с Температура, °C Точка росы, °C Давление, гПа
2019-03-25 21:30 СЗ (300°) 2 -3 -6 1026
2019-03-25 18:00 ССЗ (330°) 5 2 -4 1023
2019-03-24 19:30 ЗЮЗ (250°) 4 8 -10 1014
2019-03-23 23:30 ЮЗ (230°) 2 -3 -14 1017
2019-03-22 09:30 ЮЮВ (160°) 2 -4 -10 1028
2019-03-22 01:00 СЗ (300°) 2 -10 -12 1029
2019-03-20 16:00 ССВ (20°) 2 -1 -9 1031
2019-03-19 07:00 Ю (170°) 2 -12 -14 1031
2019-03-18 19:00 Штиль 0 -4 -12 1030
2019-03-17 23:00 ССЗ (330°) 3 -4 -9 1020
2019-03-16 23:00 ЮЗ (230°) 6 4 -5 1014
2019-03-16 15:30 ССВ (20°) 3 10 -5 1010
2019-03-16 03:00 Штиль 0 -5 -8 1015
2019-03-16 00:00 Штиль 0 -5 -9 1015
2019-03-14 20:00 ЗЮЗ (240°) 2 6 -10 1025
2019-03-11 14:30 СВ (30°) 2 5 -18 1023
2019-03-11 06:00 Ю (180°) 2 -12 -15 1025
2019-03-11 01:00 СЗ (320°) 1 0 2000
2019-03-11 00:30 СЗ (310°) 1 0 1600
2019-03-11 00:00 СЗ (300°) 1 0 1600
2019-03-10 22:30 ЮВ (140°) 3 -2 -17 1027